createdAt,value
2023-05-25T00:00:29.121Z,62.30
2023-05-25T00:02:56.446Z,62.35
2023-05-25T00:05:27.480Z,62.36
2023-05-25T00:07:57.932Z,62.26
2023-05-25T00:10:24.968Z,62.38
2023-05-25T00:12:51.887Z,62.10
2023-05-25T00:15:18.992Z,62.51
2023-05-25T00:17:49.087Z,63.02
2023-05-25T00:20:16.397Z,63.06
2023-05-25T00:22:47.628Z,63.16
2023-05-25T00:25:14.463Z,63.48
2023-05-25T00:27:41.315Z,63.42
2023-05-25T00:30:08.738Z,63.77
2023-05-25T00:32:36.478Z,64.09
2023-05-25T00:35:03.385Z,64.48
2023-05-25T00:37:30.389Z,64.75
2023-05-25T00:39:57.217Z,64.70
2023-05-25T00:42:24.573Z,64.65
2023-05-25T00:44:51.419Z,64.82
2023-05-25T00:47:18.474Z,64.94
2023-05-25T00:49:46.274Z,65.14
2023-05-25T00:52:14.605Z,65.34
2023-05-25T00:54:48.162Z,65.61
2023-05-25T00:57:18.936Z,65.76
2023-05-25T00:59:51.662Z,65.90
2023-05-25T01:02:19.827Z,65.88
2023-05-25T01:04:54.193Z,65.84
2023-05-25T01:07:27.061Z,66.05
2023-05-25T01:10:07.254Z,66.00
2023-05-25T01:12:38.068Z,66.02
2023-05-25T01:15:06.035Z,66.11
2023-05-25T01:17:33.228Z,65.94
2023-05-25T01:20:09.763Z,65.71
2023-05-25T01:22:51.485Z,65.86
2023-05-25T01:25:59.265Z,66.09
2023-05-25T01:28:30.768Z,66.04
2023-05-25T01:30:58.986Z,66.33
2023-05-25T01:33:27.419Z,66.43
2023-05-25T01:35:54.754Z,66.08
2023-05-25T01:38:21.591Z,65.86
2023-05-25T01:40:48.387Z,65.33
2023-05-25T01:43:15.218Z,65.02
2023-05-25T01:45:43.068Z,64.85
2023-05-25T01:48:27.084Z,64.13
2023-05-25T01:51:05.117Z,63.66
2023-05-25T01:53:37.756Z,63.71
2023-05-25T01:56:11.634Z,63.59
2023-05-25T01:58:42.512Z,63.56
2023-05-25T02:01:10.696Z,63.57
2023-05-25T02:03:42.015Z,63.22
2023-05-25T02:06:10.774Z,63.32
2023-05-25T02:08:37.510Z,63.33
2023-05-25T02:11:04.502Z,63.47
2023-05-25T02:13:31.463Z,63.46
2023-05-25T02:15:58.245Z,63.88
2023-05-25T02:18:25.104Z,63.98
2023-05-25T02:20:54.442Z,63.85
2023-05-25T02:23:21.805Z,63.59
2023-05-25T02:25:48.703Z,63.68
2023-05-25T02:28:16.255Z,63.76
2023-05-25T02:30:43.156Z,64.05
2023-05-25T02:33:10.052Z,63.86
2023-05-25T02:35:37.038Z,64.10
2023-05-25T02:38:03.870Z,63.97
2023-05-25T02:40:31.000Z,63.87
2023-05-25T02:42:57.880Z,63.93
2023-05-25T02:45:24.637Z,64.79
2023-05-25T02:47:51.500Z,64.88
2023-05-25T02:50:19.448Z,66.39
2023-05-25T02:52:49.034Z,68.26
2023-05-25T02:55:18.976Z,69.50
2023-05-25T02:57:46.071Z,70.04
2023-05-25T03:00:27.129Z,70.31
2023-05-25T03:02:54.314Z,70.52
2023-05-25T03:05:22.071Z,70.50
2023-05-25T03:07:49.298Z,71.01
2023-05-25T03:10:16.190Z,72.35
2023-05-25T03:12:43.459Z,72.05
2023-05-25T03:15:13.249Z,71.65
2023-05-25T03:17:40.605Z,72.60
2023-05-25T03:20:10.573Z,73.48
2023-05-25T03:22:41.972Z,73.56
2023-05-25T03:25:12.560Z,73.56
2023-05-25T03:27:40.180Z,74.06
2023-05-25T03:30:09.181Z,74.80
2023-05-25T03:32:36.330Z,74.78
2023-05-25T03:35:05.813Z,74.38
2023-05-25T03:37:33.162Z,73.94
2023-05-25T03:39:59.968Z,74.29
2023-05-25T03:42:26.879Z,74.09
2023-05-25T03:44:54.043Z,73.02
2023-05-25T03:47:20.900Z,73.17
2023-05-25T03:49:47.937Z,73.25
2023-05-25T03:52:14.820Z,73.69
2023-05-25T03:54:41.995Z,74.74
2023-05-25T03:57:09.203Z,74.85
2023-05-25T03:59:36.196Z,74.95
2023-05-25T04:02:03.432Z,74.59
2023-05-25T04:04:30.355Z,74.85
2023-05-25T04:06:58.548Z,74.72
2023-05-25T04:09:25.512Z,74.44
2023-05-25T04:11:52.374Z,74.77
2023-05-25T04:14:21.235Z,74.75
2023-05-25T04:16:48.752Z,74.90
2023-05-25T04:19:16.391Z,75.42
2023-05-25T04:21:43.221Z,75.90
2023-05-25T04:24:11.394Z,75.97
2023-05-25T04:26:39.524Z,76.81
2023-05-25T04:29:07.125Z,77.51
2023-05-25T04:31:56.111Z,78.00
2023-05-25T04:34:33.951Z,79.80
2023-05-25T04:37:08.976Z,79.74
2023-05-25T04:39:36.529Z,80.07
2023-05-25T04:42:04.842Z,78.89
2023-05-25T04:44:33.711Z,78.57
2023-05-25T04:47:01.499Z,78.38
2023-05-25T04:49:34.018Z,78.86
2023-05-25T04:52:01.086Z,79.10
2023-05-25T04:54:30.049Z,79.61
2023-05-25T04:56:59.661Z,80.63
2023-05-25T04:59:26.552Z,83.53
2023-05-25T05:01:53.408Z,82.31
2023-05-25T05:04:20.778Z,79.96
2023-05-25T05:06:48.598Z,77.90
2023-05-25T05:09:19.530Z,77.62
2023-05-25T05:11:47.322Z,78.44
2023-05-25T05:14:14.080Z,77.24
2023-05-25T05:16:43.154Z,75.71
2023-05-25T05:19:10.010Z,76.33
2023-05-25T05:21:37.197Z,75.16
2023-05-25T05:24:06.617Z,74.98
2023-05-25T05:26:44.213Z,74.76
2023-05-25T05:29:18.003Z,72.68
2023-05-25T05:31:46.369Z,73.64
2023-05-25T05:34:13.425Z,72.91
2023-05-25T05:36:55.900Z,73.12
2023-05-25T05:39:24.446Z,73.69
2023-05-25T05:41:51.390Z,73.92
2023-05-25T05:44:26.856Z,74.66
2023-05-25T05:47:01.155Z,74.09
2023-05-25T05:49:30.408Z,74.30
2023-05-25T05:51:59.373Z,74.23
2023-05-25T05:54:28.112Z,74.09
2023-05-25T05:56:56.644Z,74.33
2023-05-25T05:59:24.073Z,74.79
2023-05-25T06:01:51.108Z,74.61
2023-05-25T06:04:19.461Z,75.29
2023-05-25T06:06:46.394Z,76.10
2023-05-25T06:09:13.891Z,75.88
2023-05-25T06:11:40.785Z,76.31
2023-05-25T06:14:09.384Z,76.18
2023-05-25T06:16:36.750Z,76.93
2023-05-25T06:19:04.218Z,79.08
2023-05-25T06:21:31.070Z,79.76
2023-05-25T06:23:57.936Z,80.06
2023-05-25T06:26:25.106Z,80.13
2023-05-25T06:28:52.433Z,79.96
2023-05-25T06:31:19.481Z,80.04
2023-05-25T06:33:46.454Z,80.30
2023-05-25T06:36:15.834Z,80.97
2023-05-25T06:38:44.216Z,81.09
2023-05-25T06:41:15.185Z,81.52
2023-05-25T06:43:42.952Z,81.70
2023-05-25T06:46:18.331Z,82.50
2023-05-25T06:48:46.240Z,81.71
2023-05-25T06:51:13.417Z,81.92
2023-05-25T06:53:40.386Z,82.15
2023-05-25T06:56:07.265Z,82.17
2023-05-25T06:58:34.085Z,82.88
2023-05-25T07:01:01.245Z,81.47
2023-05-25T07:03:28.324Z,81.72
2023-05-25T07:05:55.406Z,81.55
2023-05-25T07:08:22.399Z,81.47
2023-05-25T07:10:50.407Z,81.31
2023-05-25T07:13:17.445Z,81.54
2023-05-25T07:15:44.771Z,81.61
2023-05-25T07:18:12.705Z,80.92
2023-05-25T07:20:43.935Z,80.58
2023-05-25T07:23:11.683Z,80.64
2023-05-25T07:25:39.254Z,80.85
2023-05-25T07:28:06.364Z,81.37
2023-05-25T07:30:33.496Z,81.12
2023-05-25T07:33:01.037Z,81.05
2023-05-25T07:35:28.044Z,79.66
2023-05-25T07:38:02.536Z,79.35
2023-05-25T07:40:29.387Z,78.37
2023-05-25T07:42:57.247Z,78.08
2023-05-25T07:45:24.113Z,77.33
2023-05-25T07:47:51.240Z,78.11
2023-05-25T07:50:18.364Z,79.30
2023-05-25T07:52:45.261Z,78.80
2023-05-25T07:55:12.376Z,78.67
2023-05-25T07:57:39.252Z,78.12
2023-05-25T08:00:08.268Z,77.75
2023-05-25T08:02:41.860Z,78.05
2023-05-25T08:05:10.207Z,78.76
2023-05-25T08:07:37.202Z,78.85
2023-05-25T08:10:04.879Z,78.38
2023-05-25T08:12:46.918Z,78.45
2023-05-25T08:15:15.550Z,78.77
2023-05-25T08:17:42.624Z,78.62
2023-05-25T08:20:10.659Z,78.05
2023-05-25T08:22:37.736Z,77.20
2023-05-25T08:25:05.546Z,76.95
2023-05-25T08:27:35.412Z,77.46
2023-05-25T08:30:03.747Z,77.49
2023-05-25T08:32:30.561Z,77.65
2023-05-25T08:34:57.370Z,77.82
2023-05-25T08:37:25.045Z,78.31
2023-05-25T08:39:51.868Z,77.92
2023-05-25T08:42:18.705Z,77.26
2023-05-25T08:44:46.030Z,77.02
2023-05-25T08:47:15.322Z,77.04
2023-05-25T08:49:44.907Z,77.23
2023-05-25T08:52:15.041Z,76.81
2023-05-25T08:54:48.137Z,75.31
2023-05-25T08:57:24.997Z,74.63
2023-05-25T09:00:06.558Z,74.34
2023-05-25T09:02:51.096Z,73.77
2023-05-25T09:05:18.742Z,71.60
2023-05-25T09:07:46.583Z,70.53
2023-05-25T09:10:15.594Z,73.04
2023-05-25T09:12:43.863Z,71.92
2023-05-25T09:15:12.356Z,71.25
2023-05-25T09:17:41.371Z,68.30
2023-05-25T09:20:13.803Z,68.16
2023-05-25T09:22:44.874Z,67.00
2023-05-25T09:25:13.092Z,67.39
2023-05-25T09:27:41.102Z,67.20
2023-05-25T09:30:08.636Z,68.80
2023-05-25T09:32:36.335Z,68.25
2023-05-25T09:35:11.300Z,68.16
2023-05-25T09:37:40.370Z,67.21
2023-05-25T09:40:09.117Z,67.49
2023-05-25T09:42:36.404Z,67.56
2023-05-25T09:45:04.177Z,67.95
2023-05-25T09:47:31.633Z,67.72
2023-05-25T09:49:59.242Z,67.85
2023-05-25T09:52:26.189Z,68.27
2023-05-25T09:54:53.032Z,68.40
2023-05-25T09:57:21.172Z,68.17
2023-05-25T09:59:48.239Z,68.26
2023-05-25T10:02:15.884Z,67.44
2023-05-25T10:04:42.849Z,66.12
2023-05-25T10:07:10.077Z,67.21
2023-05-25T10:09:41.688Z,67.28
2023-05-25T10:12:09.110Z,67.02
2023-05-25T10:14:38.203Z,68.03
2023-05-25T10:17:09.402Z,67.18
2023-05-25T10:19:46.666Z,67.29
2023-05-25T10:22:19.402Z,67.34
2023-05-25T10:24:57.320Z,67.66
2023-05-25T10:27:29.645Z,67.77
2023-05-25T10:29:57.704Z,68.10
2023-05-25T10:32:25.600Z,67.74
2023-05-25T10:34:53.601Z,68.68
2023-05-25T10:37:21.054Z,68.56
2023-05-25T10:39:49.734Z,67.73
2023-05-25T10:42:18.677Z,67.81
2023-05-25T10:44:46.576Z,67.57
2023-05-25T10:47:15.332Z,67.69
2023-05-25T10:49:59.587Z,67.01
2023-05-25T10:52:30.985Z,67.15
2023-05-25T10:55:01.654Z,66.98
2023-05-25T10:57:28.645Z,67.01
2023-05-25T11:00:06.188Z,66.23
2023-05-25T11:02:51.366Z,66.78
2023-05-25T11:05:27.514Z,67.28
2023-05-25T11:07:55.830Z,67.53
2023-05-25T11:10:44.440Z,67.80
2023-05-25T11:13:35.607Z,67.98
2023-05-25T11:16:36.287Z,68.84
2023-05-25T11:19:03.655Z,69.33
2023-05-25T11:21:32.200Z,69.42
2023-05-25T11:24:04.469Z,70.04
2023-05-25T11:26:34.187Z,70.46
2023-05-25T11:29:11.346Z,70.89
2023-05-25T11:31:43.075Z,70.65
2023-05-25T11:34:12.087Z,70.70
2023-05-25T11:36:39.349Z,71.01
2023-05-25T11:39:17.161Z,71.67
2023-05-25T11:41:51.634Z,71.87
2023-05-25T11:44:29.823Z,71.64
2023-05-25T11:46:58.263Z,73.06
2023-05-25T11:49:26.067Z,73.54
2023-05-25T11:51:54.231Z,74.10
2023-05-25T11:54:25.130Z,74.00
2023-05-25T11:56:52.621Z,75.07
2023-05-25T11:59:20.006Z,75.32
2023-05-25T12:01:59.460Z,76.46
2023-05-25T12:04:26.838Z,77.09
2023-05-25T12:07:01.394Z,77.40
2023-05-25T12:09:28.211Z,77.65
2023-05-25T12:11:55.255Z,78.69
2023-05-25T12:14:23.998Z,79.37
2023-05-25T12:16:51.523Z,80.34
2023-05-25T12:19:19.128Z,80.87
2023-05-25T12:21:46.519Z,81.75
2023-05-25T12:24:13.783Z,82.56
2023-05-25T12:27:16.884Z,82.96
2023-05-25T12:29:49.860Z,83.49
2023-05-25T12:32:16.972Z,83.51
2023-05-25T12:34:43.823Z,82.82
2023-05-25T12:37:21.731Z,83.48
2023-05-25T12:39:49.284Z,83.90
2023-05-25T12:42:17.083Z,82.94
2023-05-25T12:44:46.528Z,83.36
2023-05-25T12:47:20.271Z,83.45
2023-05-25T12:49:51.374Z,82.31
2023-05-25T12:52:38.069Z,82.61
2023-05-25T12:55:21.953Z,82.57
2023-05-25T12:57:55.673Z,82.78
2023-05-25T13:00:33.549Z,82.44
2023-05-25T13:03:01.206Z,82.03
2023-05-25T13:05:31.162Z,81.39
2023-05-25T13:07:58.324Z,81.36
2023-05-25T13:10:26.172Z,81.64
2023-05-25T13:12:55.569Z,81.77
2023-05-25T13:15:22.610Z,81.85
2023-05-25T13:17:50.951Z,82.11
2023-05-25T13:20:23.065Z,81.96
2023-05-25T13:22:52.130Z,82.22
2023-05-25T13:25:19.641Z,80.45
2023-05-25T13:27:50.517Z,79.78
2023-05-25T13:30:18.248Z,78.00
2023-05-25T13:32:45.094Z,78.03
2023-05-25T13:35:19.222Z,78.18
2023-05-25T13:37:46.400Z,79.12
2023-05-25T13:40:13.649Z,78.75
2023-05-25T13:42:41.119Z,77.95
2023-05-25T13:45:08.612Z,77.98
2023-05-25T13:47:35.584Z,77.04
2023-05-25T13:50:02.552Z,78.02
2023-05-25T13:52:29.762Z,78.49
2023-05-25T13:54:56.574Z,78.20
2023-05-25T13:57:23.466Z,78.66
2023-05-25T13:59:50.309Z,79.22
2023-05-25T14:02:17.202Z,77.77
2023-05-25T14:04:44.048Z,77.29
2023-05-25T14:07:11.095Z,76.30
2023-05-25T14:09:37.995Z,75.07
2023-05-25T14:12:05.179Z,75.34
2023-05-25T14:14:33.028Z,75.35
2023-05-25T14:17:01.507Z,73.94
2023-05-25T14:19:28.890Z,74.30
2023-05-25T14:22:11.712Z,73.63
2023-05-25T14:24:39.320Z,74.13
2023-05-25T14:27:07.316Z,73.57
2023-05-25T14:29:34.490Z,73.92
2023-05-25T14:32:02.009Z,74.15
2023-05-25T14:34:29.577Z,74.04
2023-05-25T14:36:56.470Z,74.22
2023-05-25T14:39:23.276Z,74.07
2023-05-25T14:41:50.180Z,73.95
2023-05-25T14:44:17.079Z,73.10
2023-05-25T14:46:43.936Z,73.12
2023-05-25T14:49:10.856Z,73.43
2023-05-25T14:51:38.102Z,73.35
2023-05-25T14:54:07.214Z,73.42
2023-05-25T14:56:34.502Z,73.92
2023-05-25T14:59:01.470Z,73.96
2023-05-25T15:01:29.537Z,73.64
2023-05-25T15:03:57.080Z,73.59
2023-05-25T15:06:24.134Z,73.51
2023-05-25T15:08:51.337Z,73.48
2023-05-25T15:11:18.639Z,73.11
2023-05-25T15:13:45.988Z,73.75
2023-05-25T15:16:19.451Z,73.90
2023-05-25T15:18:46.284Z,73.75
2023-05-25T15:21:13.135Z,74.23
2023-05-25T15:23:39.954Z,75.42
2023-05-25T15:26:08.194Z,76.70
2023-05-25T15:28:35.219Z,75.58
2023-05-25T15:31:03.396Z,74.52
2023-05-25T15:33:44.481Z,74.45
2023-05-25T15:36:16.799Z,74.42
2023-05-25T15:38:44.468Z,73.71
2023-05-25T15:41:14.993Z,74.07
2023-05-25T15:43:42.218Z,73.71
2023-05-25T15:46:09.052Z,74.22
2023-05-25T15:48:35.984Z,73.96
2023-05-25T15:51:02.882Z,73.66
2023-05-25T15:53:30.461Z,73.97
2023-05-25T15:55:57.425Z,74.30
2023-05-25T15:58:24.213Z,75.33
2023-05-25T16:00:51.047Z,75.64
2023-05-25T16:03:17.972Z,75.68
2023-05-25T16:05:44.946Z,76.28
2023-05-25T16:08:13.979Z,76.51
2023-05-25T16:10:40.865Z,76.08
2023-05-25T16:13:07.706Z,77.09
2023-05-25T16:15:34.482Z,77.38
2023-05-25T16:18:01.388Z,77.42
2023-05-25T16:20:28.213Z,76.96
2023-05-25T16:22:55.133Z,77.19
2023-05-25T16:25:22.163Z,76.96
2023-05-25T16:27:48.970Z,76.99
2023-05-25T16:30:15.877Z,77.05
2023-05-25T16:32:42.799Z,76.70
2023-05-25T16:35:09.867Z,77.08
2023-05-25T16:37:36.659Z,77.41
2023-05-25T16:40:03.577Z,77.57
2023-05-25T16:42:30.414Z,77.08
2023-05-25T16:44:57.250Z,77.07
2023-05-25T16:47:24.178Z,76.73
2023-05-25T16:49:51.041Z,76.58
2023-05-25T16:52:17.821Z,76.88
2023-05-25T16:54:44.672Z,76.61
2023-05-25T16:57:12.108Z,76.11
2023-05-25T16:59:39.367Z,75.92
2023-05-25T17:02:06.942Z,75.59
2023-05-25T17:04:33.677Z,75.54
2023-05-25T17:07:00.539Z,75.89
2023-05-25T17:09:27.661Z,76.13
2023-05-25T17:11:59.413Z,76.45
2023-05-25T17:14:26.592Z,76.12
2023-05-25T17:16:53.494Z,75.79
2023-05-25T17:19:20.552Z,76.08
2023-05-25T17:21:47.757Z,75.41
2023-05-25T17:24:14.593Z,76.15
2023-05-25T17:26:41.385Z,75.46
2023-05-25T17:29:08.279Z,75.22
2023-05-25T17:31:35.175Z,76.13
2023-05-25T17:34:02.040Z,75.49
2023-05-25T17:36:28.882Z,75.82
2023-05-25T17:38:55.785Z,76.25
2023-05-25T17:41:22.888Z,76.55
2023-05-25T17:43:49.770Z,77.54
2023-05-25T17:46:17.471Z,77.80
2023-05-25T17:48:44.326Z,77.15
2023-05-25T17:51:11.304Z,77.06
2023-05-25T17:53:38.141Z,77.74
2023-05-25T17:56:05.119Z,77.49
2023-05-25T17:58:32.448Z,77.38
2023-05-25T18:00:59.349Z,77.56
2023-05-25T18:03:26.370Z,77.71
2023-05-25T18:05:53.333Z,77.85
2023-05-25T18:08:21.287Z,77.37
2023-05-25T18:10:50.262Z,77.06
2023-05-25T18:13:17.313Z,76.75
2023-05-25T18:15:44.297Z,76.03
2023-05-25T18:18:11.405Z,76.56
2023-05-25T18:20:38.253Z,76.73
2023-05-25T18:23:08.208Z,76.22
2023-05-25T18:25:35.065Z,74.98
2023-05-25T18:28:01.879Z,74.81
2023-05-25T18:30:28.668Z,75.05
2023-05-25T18:32:55.546Z,75.33
2023-05-25T18:35:22.575Z,75.93
2023-05-25T18:37:49.357Z,76.37
2023-05-25T18:40:16.495Z,76.06
2023-05-25T18:42:43.406Z,77.12
2023-05-25T18:45:10.471Z,76.56
2023-05-25T18:47:37.326Z,76.93
2023-05-25T18:50:04.556Z,77.38
2023-05-25T18:52:31.419Z,78.03
2023-05-25T18:54:58.350Z,78.41
2023-05-25T18:57:25.178Z,78.29
2023-05-25T18:59:52.296Z,78.07
2023-05-25T19:02:19.075Z,78.27
2023-05-25T19:04:45.932Z,79.28
2023-05-25T19:07:12.893Z,79.53
2023-05-25T19:09:39.743Z,79.69
2023-05-25T19:12:09.791Z,80.29
2023-05-25T19:14:36.671Z,79.93
2023-05-25T19:17:03.593Z,80.47
2023-05-25T19:19:30.636Z,80.42
2023-05-25T19:21:57.506Z,80.48
2023-05-25T19:24:24.314Z,80.24
2023-05-25T19:26:51.213Z,79.58
2023-05-25T19:29:18.279Z,79.71
2023-05-25T19:31:45.186Z,79.73
2023-05-25T19:34:12.122Z,79.51
2023-05-25T19:36:38.921Z,79.23
2023-05-25T19:39:05.781Z,78.47
2023-05-25T19:41:32.610Z,78.32
2023-05-25T19:43:59.383Z,77.95
2023-05-25T19:46:26.263Z,77.99
2023-05-25T19:48:53.484Z,77.90
2023-05-25T19:51:20.595Z,78.53
2023-05-25T19:53:49.089Z,78.14
2023-05-25T19:56:15.964Z,77.85
2023-05-25T19:58:42.868Z,77.87
2023-05-25T20:01:09.924Z,78.67
2023-05-25T20:03:36.961Z,78.73
2023-05-25T20:06:03.943Z,79.10
2023-05-25T20:08:30.802Z,79.19
2023-05-25T20:10:57.644Z,77.82
2023-05-25T20:13:24.541Z,77.08
2023-05-25T20:15:51.319Z,77.13
2023-05-25T20:18:18.827Z,77.45
2023-05-25T20:20:48.654Z,78.22
2023-05-25T20:23:15.590Z,77.95
2023-05-25T20:25:42.591Z,77.65
2023-05-25T20:28:09.486Z,77.44
2023-05-25T20:30:36.372Z,77.94
2023-05-25T20:33:03.389Z,77.10
2023-05-25T20:35:30.896Z,75.43
2023-05-25T20:37:57.741Z,75.36
2023-05-25T20:40:26.719Z,75.04
2023-05-25T20:42:53.591Z,74.92
2023-05-25T20:45:20.562Z,75.43
2023-05-25T20:47:47.481Z,75.32
2023-05-25T20:50:14.329Z,75.31
2023-05-25T20:52:41.800Z,75.44
2023-05-25T20:55:09.145Z,75.48
2023-05-25T20:57:35.953Z,75.24
2023-05-25T21:00:04.046Z,74.40
2023-05-25T21:02:31.031Z,74.38
2023-05-25T21:04:57.846Z,74.69
2023-05-25T21:07:24.696Z,74.82
2023-05-25T21:09:51.651Z,75.39
2023-05-25T21:12:18.682Z,76.04
2023-05-25T21:14:45.564Z,76.34
2023-05-25T21:17:14.797Z,76.61
2023-05-25T21:19:41.735Z,76.71
2023-05-25T21:22:08.626Z,76.98
2023-05-25T21:24:35.460Z,77.74
2023-05-25T21:27:02.470Z,77.71
2023-05-25T21:29:29.297Z,77.52
2023-05-25T21:31:56.459Z,77.93
2023-05-25T21:34:23.334Z,77.87
2023-05-25T21:36:50.274Z,78.11
2023-05-25T21:39:18.458Z,78.58
2023-05-25T21:41:45.396Z,78.47
2023-05-25T21:44:12.127Z,79.25
2023-05-25T21:46:39.928Z,79.13
2023-05-25T21:49:06.753Z,79.28
2023-05-25T21:51:33.662Z,79.32
2023-05-25T21:54:00.598Z,79.39
2023-05-25T21:56:27.688Z,78.62
2023-05-25T21:58:54.998Z,78.71
2023-05-25T22:01:24.812Z,78.94
2023-05-25T22:03:51.663Z,79.39
2023-05-25T22:06:18.462Z,79.44
2023-05-25T22:08:45.370Z,79.43
2023-05-25T22:11:12.224Z,79.49
2023-05-25T22:13:39.091Z,79.63
2023-05-25T22:16:06.141Z,79.97
2023-05-25T22:18:33.604Z,79.31
2023-05-25T22:21:00.456Z,79.35
2023-05-25T22:23:27.443Z,79.80
2023-05-25T22:25:54.225Z,79.83
2023-05-25T22:28:22.711Z,79.83
2023-05-25T22:30:49.551Z,80.06
2023-05-25T22:33:16.508Z,79.90
2023-05-25T22:35:43.507Z,80.14
2023-05-25T22:38:10.673Z,80.74
2023-05-25T22:40:37.659Z,81.19
2023-05-25T22:43:12.695Z,81.44
2023-05-25T22:45:40.461Z,81.42
2023-05-25T22:48:08.256Z,81.31
2023-05-25T22:50:35.297Z,81.48
2023-05-25T22:53:02.217Z,81.61
2023-05-25T22:55:29.016Z,80.99
2023-05-25T22:57:56.023Z,81.16
2023-05-25T23:00:23.513Z,80.89
2023-05-25T23:02:50.634Z,80.85
2023-05-25T23:05:17.640Z,80.79
2023-05-25T23:07:44.894Z,80.31
2023-05-25T23:10:11.724Z,80.26
2023-05-25T23:12:38.633Z,79.58
2023-05-25T23:15:08.071Z,79.18
2023-05-25T23:17:35.262Z,79.40
2023-05-25T23:20:02.304Z,80.08
2023-05-25T23:22:29.221Z,79.11
2023-05-25T23:24:56.048Z,79.13
2023-05-25T23:27:22.859Z,79.15
2023-05-25T23:29:49.724Z,79.13
2023-05-25T23:32:16.554Z,79.12
2023-05-25T23:34:43.332Z,79.54
2023-05-25T23:37:10.197Z,79.77
2023-05-25T23:39:37.026Z,79.98
2023-05-25T23:42:04.008Z,79.87
2023-05-25T23:44:30.937Z,79.91
2023-05-25T23:46:57.759Z,79.86
2023-05-25T23:49:24.652Z,79.58
2023-05-25T23:51:51.486Z,79.92
2023-05-25T23:54:18.469Z,79.85
2023-05-25T23:56:45.340Z,79.38
2023-05-25T23:59:15.145Z,78.85
